Brockway, Montana
Current Conditions -  °F | °C
As of 10:55 AM on Thursday 30 Oct 2014 (Local Time) from KGDV Reporting Station
Overcast Overcast  
Wind Chill:   Ceiling: 1100
Heat Index:   Visibility: 10mi
Dew Point:   Wind: 8mph
Humidity: 81%   Direction: 70°ENE
Pressure: 30.39"   Gusts: NA
Location:  47.3°N, 105.77°W
Report Text: KGDV 301655Z AUTO 07007KT 10SM OVC011 03/00 A3039 RMK AO1
Loading
Personal Weather Stations






























Interactive Weather Map
Tropical Storm Tracking
New forecast layout! Learn more

10-Day Weather Forecast

Advertisements
Track Severe Weather on mobile